Terminal Aerodrome Forecast
Issued by NWS

Home | Current Version | Previous Version | Text Only | Print | Product List | Glossary On
Versions: 1 2 3 4 5 6 7 8 9 10 11 12 13 14 15 16 17 18 19 20 21 22 23 24
000
FTUS43 KDVN 131720
TAFBRL
TAF
KBRL 131720Z 1318/1418 15007KT P6SM SCT040 SCT120
     FM132100 12007KT P6SM SCT040 SCT120
     FM141300 19011KT P6SM SCT120=

USA.gov is the U.S. government's official web portal to all federal, state and local government web resources and services.